PILOTS ONLINE: 373    ATC ONLINE: 53

KNKT - Cherry Point MCAS /Cunningham Field/

Location

City Cherry Point
Country  United States
Latitude 34° 54' 3" N
Longitude 76° 52' 50" W
Elevation 29 ft
Type Medium Airport

Runways

05L/23R 7553 ft / 200 ft
05R/23L 8188 ft / 196 ft
14L/32R 8984 ft / 200 ft
14R/32L 8399 ft / 200 ft

Weather

METAR
2014/07/23 10:54
KNKT 231054Z 22003KT 10SM FEW200 23/22 A3006 RMK AO2 SLP177 T02330222 
TAF
2014/07/23 09:09
TAF TAF KNKT 2309/2409 20003KT 9999 FEW050 FEW200 QNH3002INS 
      BECMG 2311/2312 20007KT 9999 SCT030 SCT200 QNH2995INS 
      TEMPO 2319/2323 VRB15G30KT 1600 TSRA SCT010 BKN020CB 
     FM240300 20007KT 9999 SCT030 SCT100 BKN200 QNH2995INS T23/2310Z T31/2319Z

Outbound flights

Inbound flights